createdAt,value
2018-09-04T00:01:56.590Z,5.13
2018-09-04T00:04:24.849Z,5.37
2018-09-04T00:06:53.937Z,5.47
2018-09-04T00:09:22.984Z,5.40
2018-09-04T00:11:51.222Z,5.20
2018-09-04T00:14:19.518Z,5.87
2018-09-04T00:16:47.744Z,5.20
2018-09-04T00:19:16.010Z,5.03
2018-09-04T00:21:44.300Z,5.13
2018-09-04T00:24:12.521Z,5.40
2018-09-04T00:26:40.770Z,5.47
2018-09-04T00:29:09.114Z,5.90
2018-09-04T00:31:38.153Z,4.83
2018-09-04T00:34:06.422Z,5.83
2018-09-04T00:36:34.815Z,5.47
2018-09-04T00:39:03.051Z,4.70
2018-09-04T00:41:32.074Z,4.77
2018-09-04T00:44:00.346Z,5.10
2018-09-04T00:46:28.607Z,5.37
2018-09-04T00:48:57.625Z,5.47
2018-09-04T00:51:25.886Z,5.00
2018-09-04T00:53:54.150Z,5.20
2018-09-04T00:56:22.386Z,5.10
2018-09-04T00:58:50.702Z,5.10
2018-09-04T01:01:18.915Z,4.60
2018-09-04T01:03:47.150Z,5.17
2018-09-04T01:06:15.399Z,5.10
2018-09-04T01:08:44.455Z,5.30
2018-09-04T01:11:12.689Z,5.23
2018-09-04T01:13:40.949Z,5.83
2018-09-04T01:16:09.954Z,4.90
2018-09-04T01:18:38.977Z,4.90
2018-09-04T01:21:07.234Z,4.53
2018-09-04T01:23:35.513Z,5.33
2018-09-04T01:26:04.537Z,5.00
2018-09-04T01:28:32.845Z,4.97
2018-09-04T01:31:01.089Z,5.47
2018-09-04T01:33:29.333Z,5.27
2018-09-04T01:35:57.590Z,4.93
2018-09-04T01:38:25.845Z,5.47
2018-09-04T01:40:54.854Z,5.07
2018-09-04T01:43:24.009Z,5.00
2018-09-04T01:45:52.242Z,4.87
2018-09-04T01:48:20.481Z,4.80
2018-09-04T01:50:48.737Z,5.13
2018-09-04T01:53:16.982Z,5.23
2018-09-04T01:55:45.215Z,5.07
2018-09-04T01:58:14.535Z,5.23
2018-09-04T02:00:42.786Z,5.17
2018-09-04T02:03:11.829Z,5.30
2018-09-04T02:05:40.107Z,5.10
2018-09-04T02:08:08.357Z,4.87
2018-09-04T02:10:36.602Z,5.40
2018-09-04T02:13:05.620Z,5.67
2018-09-04T02:15:33.884Z,5.50
2018-09-04T02:18:03.148Z,5.70
2018-09-04T02:20:31.386Z,5.50
2018-09-04T02:22:59.629Z,5.60
2018-09-04T02:25:29.156Z,5.23
2018-09-04T02:27:57.397Z,5.73
2018-09-04T02:30:26.403Z,5.27
2018-09-04T02:32:54.668Z,5.10
2018-09-04T02:35:22.903Z,4.60
2018-09-04T02:37:51.169Z,5.53
2018-09-04T02:40:19.404Z,5.80
2018-09-04T02:42:47.663Z,4.83
2018-09-04T02:45:15.911Z,5.13
2018-09-04T02:47:44.153Z,4.80
2018-09-04T02:50:12.407Z,4.80
2018-09-04T02:52:40.679Z,5.27
2018-09-04T02:55:08.902Z,4.77
2018-09-04T02:57:37.138Z,4.67
2018-09-04T03:00:05.404Z,5.10
2018-09-04T03:02:34.402Z,5.20
2018-09-04T03:05:02.642Z,4.73
2018-09-04T03:07:31.038Z,4.93
2018-09-04T03:10:00.445Z,4.93
2018-09-04T03:12:28.929Z,5.10
2018-09-04T03:14:57.152Z,5.43
2018-09-04T03:17:25.386Z,5.43
2018-09-04T03:19:53.670Z,4.97
2018-09-04T03:22:21.924Z,5.43
2018-09-04T03:24:50.188Z,5.13
2018-09-04T03:27:19.250Z,5.30
2018-09-04T03:29:47.511Z,5.50
2018-09-04T03:32:15.767Z,5.10
2018-09-04T03:34:44.000Z,5.00
2018-09-04T03:37:13.030Z,5.13
2018-09-04T03:39:41.281Z,5.77
2018-09-04T03:42:10.305Z,5.40
2018-09-04T03:44:38.587Z,5.17
2018-09-04T03:47:06.843Z,5.17
2018-09-04T03:49:35.078Z,5.30
2018-09-04T03:52:04.129Z,6.00
2018-09-04T03:54:32.370Z,5.47
2018-09-04T03:57:00.609Z,5.83
2018-09-04T03:59:28.879Z,6.03
2018-09-04T04:01:57.158Z,5.83
2018-09-04T04:04:25.462Z,5.33
2018-09-04T04:06:53.695Z,5.70
2018-09-04T04:09:21.970Z,5.73
2018-09-04T04:11:50.240Z,5.77
2018-09-04T04:14:18.495Z,5.27
2018-09-04T04:16:46.745Z,5.57
2018-09-04T04:19:15.764Z,5.77
2018-09-04T04:21:44.010Z,5.70
2018-09-04T04:24:13.137Z,6.13
2018-09-04T04:26:41.378Z,5.80
2018-09-04T04:29:09.650Z,5.30
2018-09-04T04:31:38.650Z,5.60
2018-09-04T04:34:06.894Z,5.97
2018-09-04T04:36:35.155Z,5.43
2018-09-04T04:39:04.195Z,5.87
2018-09-04T04:41:32.454Z,5.37
2018-09-04T04:44:01.462Z,5.43
2018-09-04T04:46:30.224Z,5.50
2018-09-04T04:48:58.455Z,5.53
2018-09-04T04:51:26.726Z,5.57
2018-09-04T04:53:54.977Z,6.27
2018-09-04T04:56:23.246Z,5.80
2018-09-04T04:58:51.499Z,6.10
2018-09-04T05:01:20.538Z,5.77
2018-09-04T05:03:48.780Z,5.73
2018-09-04T05:06:17.807Z,5.97
2018-09-04T05:08:46.042Z,5.33
2018-09-04T05:11:15.328Z,5.90
2018-09-04T05:13:43.402Z,5.80
2018-09-04T05:16:12.411Z,5.83
2018-09-04T05:18:41.445Z,5.77
2018-09-04T05:21:09.673Z,5.77
2018-09-04T05:23:38.718Z,5.70
2018-09-04T05:26:08.077Z,6.13
2018-09-04T05:28:36.349Z,5.83
2018-09-04T05:31:05.367Z,5.97
2018-09-04T05:33:33.609Z,5.80
2018-09-04T05:36:02.638Z,6.17
2018-09-04T05:38:31.092Z,5.60
2018-09-04T05:40:59.694Z,5.53
2018-09-04T05:43:27.965Z,6.10
2018-09-04T05:45:56.258Z,5.97
2018-09-04T05:48:24.514Z,5.40
2018-09-04T05:50:52.774Z,6.43
2018-09-04T05:53:21.802Z,5.90
2018-09-04T05:55:50.073Z,6.50
2018-09-04T05:58:18.314Z,5.63
2018-09-04T06:00:46.562Z,6.63
2018-09-04T06:03:14.826Z,6.27
2018-09-04T06:05:43.075Z,6.17
2018-09-04T06:08:11.392Z,7.30
2018-09-04T06:10:39.669Z,6.87
2018-09-04T06:13:07.880Z,6.33
2018-09-04T06:15:36.140Z,6.57
2018-09-04T06:18:04.432Z,7.07
2018-09-04T06:20:32.782Z,6.57
2018-09-04T06:23:01.815Z,6.57
2018-09-04T06:25:30.083Z,6.60
2018-09-04T06:27:58.338Z,6.57
2018-09-04T06:30:26.618Z,6.20
2018-09-04T06:32:55.650Z,5.97
2018-09-04T06:35:23.898Z,6.93
2018-09-04T06:37:52.154Z,6.93
2018-09-04T06:40:20.406Z,6.43
2018-09-04T06:42:48.662Z,6.13
2018-09-04T06:45:16.922Z,7.00
2018-09-04T06:47:45.221Z,6.70
2018-09-04T06:50:13.474Z,6.67
2018-09-04T06:52:41.741Z,6.53
2018-09-04T06:55:09.985Z,6.57
2018-09-04T06:57:38.243Z,6.83
2018-09-04T07:00:07.262Z,6.67
2018-09-04T07:02:35.533Z,6.03
2018-09-04T07:05:03.765Z,6.70
2018-09-04T07:07:32.793Z,6.40
2018-09-04T07:10:01.066Z,6.33
2018-09-04T07:12:29.349Z,6.30
2018-09-04T07:14:57.604Z,7.07
2018-09-04T07:17:26.645Z,6.20
2018-09-04T07:19:54.889Z,6.53
2018-09-04T07:22:23.160Z,6.17
2018-09-04T07:24:51.473Z,6.30
2018-09-04T07:27:19.710Z,6.57
2018-09-04T07:29:47.979Z,6.43
2018-09-04T07:32:16.230Z,7.17
2018-09-04T07:34:44.505Z,7.13
2018-09-04T07:37:12.736Z,6.10
2018-09-04T07:39:41.001Z,7.10
2018-09-04T07:42:09.252Z,7.33
2018-09-04T07:44:38.267Z,7.30
2018-09-04T07:47:06.536Z,7.10
2018-09-04T07:49:34.796Z,6.57
2018-09-04T07:52:03.061Z,6.80
2018-09-04T07:54:31.291Z,8.70
2018-09-04T07:57:00.434Z,7.80
2018-09-04T07:59:28.676Z,8.13
2018-09-04T08:01:56.941Z,8.37
2018-09-04T08:04:25.205Z,7.87
2018-09-04T08:06:53.450Z,9.40
2018-09-04T08:09:21.705Z,9.00
2018-09-04T08:11:50.702Z,8.00
2018-09-04T08:14:18.971Z,9.97
2018-09-04T08:16:48.014Z,9.73
2018-09-04T08:19:16.258Z,11.17
2018-09-04T08:21:44.543Z,12.20
2018-09-04T08:24:12.800Z,11.70
2018-09-04T08:26:41.078Z,10.97
2018-09-04T08:29:09.320Z,11.23
2018-09-04T08:31:37.590Z,12.00
2018-09-04T08:34:05.848Z,12.27
2018-09-04T08:36:34.211Z,12.07
2018-09-04T08:39:02.574Z,12.37
2018-09-04T08:41:30.817Z,12.07
2018-09-04T08:43:59.829Z,12.40
2018-09-04T08:46:28.099Z,14.80
2018-09-04T08:48:56.362Z,13.43
2018-09-04T08:51:24.634Z,13.60
2018-09-04T08:53:53.677Z,15.07
2018-09-04T08:56:21.940Z,15.17
2018-09-04T08:58:50.204Z,14.23
2018-09-04T09:01:18.466Z,14.27
2018-09-04T09:03:46.757Z,14.63
2018-09-04T09:06:15.010Z,14.53
2018-09-04T09:08:43.259Z,14.33
2018-09-04T09:11:11.541Z,15.27
2018-09-04T09:13:40.574Z,14.90
2018-09-04T09:16:08.834Z,14.50
2018-09-04T09:18:37.122Z,16.33
2018-09-04T09:21:05.366Z,15.50
2018-09-04T09:23:34.386Z,13.60
2018-09-04T09:26:02.662Z,14.03
2018-09-04T09:28:30.930Z,13.03
2018-09-04T09:30:59.194Z,16.03
2018-09-04T09:33:27.462Z,14.63
2018-09-04T09:35:56.490Z,12.97
2018-09-04T09:38:24.773Z,11.97
2018-09-04T09:40:53.043Z,12.90
2018-09-04T09:43:21.304Z,11.23
2018-09-04T09:45:49.581Z,12.37
2018-09-04T09:48:17.818Z,13.27
2018-09-04T09:50:46.938Z,12.70
2018-09-04T09:53:15.286Z,11.30
2018-09-04T09:55:44.514Z,10.87
2018-09-04T09:58:12.805Z,10.37
2018-09-04T10:00:41.064Z,10.23
2018-09-04T10:03:09.320Z,10.53
2018-09-04T10:05:38.343Z,10.70
2018-09-04T10:08:06.689Z,9.60
2018-09-04T10:10:35.212Z,10.00
2018-09-04T10:13:03.423Z,10.10
2018-09-04T10:15:31.723Z,9.80
2018-09-04T10:18:00.760Z,9.90
2018-09-04T10:20:29.022Z,8.40
2018-09-04T10:22:57.305Z,7.97
2018-09-04T10:25:25.519Z,7.70
2018-09-04T10:27:53.787Z,8.00
2018-09-04T10:30:22.033Z,7.83
2018-09-04T10:32:50.297Z,6.83
2018-09-04T10:35:18.551Z,7.47
2018-09-04T10:37:46.806Z,8.30
2018-09-04T10:40:21.441Z,7.93
2018-09-04T10:42:50.455Z,8.67
2018-09-04T10:45:18.735Z,8.73
2018-09-04T10:47:47.003Z,8.50
2018-09-04T10:50:15.246Z,8.20
2018-09-04T10:52:44.250Z,7.57
2018-09-04T10:55:13.274Z,7.73
2018-09-04T10:57:41.525Z,8.17
2018-09-04T11:00:10.545Z,7.73
2018-09-04T11:02:38.819Z,7.70
2018-09-04T11:05:07.066Z,7.63
2018-09-04T11:07:35.322Z,8.23
2018-09-04T11:10:04.420Z,7.27
2018-09-04T11:12:33.398Z,6.60
2018-09-04T11:15:01.635Z,7.23
2018-09-04T11:17:29.912Z,7.77
2018-09-04T11:19:58.153Z,6.30
2018-09-04T11:22:27.178Z,5.00
2018-09-04T11:24:55.412Z,5.37
2018-09-04T11:27:24.427Z,5.27
2018-09-04T11:29:52.699Z,5.47
2018-09-04T11:32:20.949Z,5.37
2018-09-04T11:34:49.950Z,5.70
2018-09-04T11:37:18.970Z,5.90
2018-09-04T11:39:47.234Z,6.53
2018-09-04T11:42:15.483Z,6.43
2018-09-04T11:44:44.818Z,7.23
2018-09-04T11:47:13.069Z,7.37
2018-09-04T11:49:41.322Z,7.43
2018-09-04T11:52:10.351Z,6.83
2018-09-04T11:54:38.614Z,7.70
2018-09-04T11:57:06.885Z,7.70
2018-09-04T11:59:35.929Z,7.03
2018-09-04T12:02:05.094Z,7.30
2018-09-04T12:04:34.378Z,6.47
2018-09-04T12:07:03.541Z,6.87
2018-09-04T12:09:31.809Z,6.53
2018-09-04T12:12:00.056Z,5.60
2018-09-04T12:14:28.323Z,6.20
2018-09-04T12:16:56.573Z,5.53
2018-09-04T12:19:25.645Z,6.93
2018-09-04T12:21:53.935Z,6.10
2018-09-04T12:24:22.970Z,5.83
2018-09-04T12:26:51.203Z,6.23
2018-09-04T12:29:20.208Z,5.57
2018-09-04T12:31:48.461Z,5.23
2018-09-04T12:34:16.729Z,4.80
2018-09-04T12:36:44.985Z,5.50
2018-09-04T12:39:13.218Z,4.87
2018-09-04T12:41:41.488Z,4.57
2018-09-04T12:44:09.800Z,4.80
2018-09-04T12:46:38.345Z,4.87
2018-09-04T12:49:06.630Z,5.13
2018-09-04T12:51:34.871Z,5.10
2018-09-04T12:54:03.909Z,5.17
2018-09-04T12:56:32.153Z,5.10
2018-09-04T12:59:00.662Z,5.13
2018-09-04T13:01:28.906Z,5.27
2018-09-04T13:03:57.158Z,5.00
2018-09-04T13:06:25.403Z,4.90
2018-09-04T13:08:53.698Z,5.37
2018-09-04T13:11:21.937Z,4.80
2018-09-04T13:13:50.177Z,4.77
2018-09-04T13:16:19.218Z,5.23
2018-09-04T13:18:47.458Z,5.50
2018-09-04T13:21:15.714Z,5.30
2018-09-04T13:23:45.031Z,5.10
2018-09-04T13:26:13.275Z,5.07
2018-09-04T13:28:41.530Z,5.07
2018-09-04T13:31:09.783Z,5.77
2018-09-04T13:33:38.021Z,5.17
2018-09-04T13:36:06.274Z,4.60
2018-09-04T13:38:34.533Z,4.80
2018-09-04T13:41:02.800Z,5.03
2018-09-04T13:43:31.059Z,5.03
2018-09-04T13:45:59.303Z,4.77
2018-09-04T13:48:27.818Z,5.10
2018-09-04T13:50:56.069Z,4.60
2018-09-04T13:53:24.321Z,5.00
2018-09-04T13:55:53.486Z,4.47
2018-09-04T13:58:21.736Z,4.50
2018-09-04T14:00:49.970Z,4.60
2018-09-04T14:03:18.230Z,5.10
2018-09-04T14:05:47.258Z,4.80
2018-09-04T14:08:15.499Z,5.23
2018-09-04T14:10:44.517Z,5.27
2018-09-04T14:13:13.023Z,5.13
2018-09-04T14:15:41.270Z,5.10
2018-09-04T14:18:09.529Z,4.83
2018-09-04T14:20:38.848Z,5.30
2018-09-04T14:23:07.091Z,5.03
2018-09-04T14:25:36.204Z,4.43
2018-09-04T14:28:04.373Z,4.20
2018-09-04T14:30:33.460Z,4.10
2018-09-04T14:33:01.642Z,3.97
2018-09-04T14:35:30.686Z,3.80
2018-09-04T14:37:58.936Z,4.10
2018-09-04T14:40:27.204Z,3.90
2018-09-04T14:42:55.542Z,4.00
2018-09-04T14:45:23.733Z,3.83
2018-09-04T14:47:52.798Z,3.80
2018-09-04T14:50:21.051Z,3.80
2018-09-04T14:52:49.363Z,4.00
2018-09-04T14:55:17.586Z,3.60
2018-09-04T14:57:45.854Z,4.03
2018-09-04T15:00:14.934Z,3.87
2018-09-04T15:02:43.202Z,3.90
2018-09-04T15:05:11.498Z,4.17
2018-09-04T15:07:39.739Z,4.40
2018-09-04T15:10:08.769Z,3.97
2018-09-04T15:12:37.948Z,4.20
2018-09-04T15:15:06.274Z,4.00
2018-09-04T15:17:34.538Z,4.30
2018-09-04T15:20:02.785Z,3.80
2018-09-04T15:22:31.058Z,4.10
2018-09-04T15:24:59.297Z,4.07
2018-09-04T15:27:28.334Z,3.90
2018-09-04T15:29:56.590Z,3.60
2018-09-04T15:32:24.833Z,3.87
2018-09-04T15:34:53.105Z,4.10
2018-09-04T15:37:21.346Z,4.37
2018-09-04T15:39:49.710Z,4.30
2018-09-04T15:42:17.974Z,4.30
2018-09-04T15:44:46.209Z,3.60
2018-09-04T15:47:15.235Z,3.90
2018-09-04T15:49:43.509Z,4.00
2018-09-04T15:52:12.736Z,3.63
2018-09-04T15:54:41.010Z,3.90
2018-09-04T15:57:09.279Z,4.10
2018-09-04T15:59:37.509Z,3.70
2018-09-04T16:02:06.601Z,3.90
2018-09-04T16:04:35.642Z,3.87
2018-09-04T16:07:03.925Z,4.27
2018-09-04T16:09:32.198Z,4.10
2018-09-04T16:12:00.438Z,4.03
2018-09-04T16:14:28.696Z,4.20
2018-09-04T16:17:02.793Z,3.77
2018-09-04T16:19:37.014Z,3.73
2018-09-04T16:22:11.273Z,3.53
2018-09-04T16:24:45.592Z,3.77
2018-09-04T16:27:19.651Z,3.80
2018-09-04T16:29:53.926Z,4.10
2018-09-04T16:32:28.034Z,4.40
2018-09-04T16:35:02.358Z,3.57
2018-09-04T16:37:37.289Z,3.90
2018-09-04T16:40:05.547Z,4.20
2018-09-04T16:42:33.809Z,3.67
2018-09-04T16:45:02.052Z,3.90
2018-09-04T16:47:30.316Z,4.13
2018-09-04T16:49:58.587Z,4.17
2018-09-04T16:52:26.836Z,4.03
2018-09-04T16:54:55.149Z,4.33
2018-09-04T16:57:23.484Z,4.40
2018-09-04T16:59:51.680Z,3.77
2018-09-04T17:02:19.963Z,4.07
2018-09-04T17:04:48.204Z,3.90
2018-09-04T17:07:16.495Z,3.90
2018-09-04T17:09:44.729Z,3.90
2018-09-04T17:12:12.988Z,3.87
2018-09-04T17:14:41.432Z,3.80
2018-09-04T17:17:09.714Z,4.20
2018-09-04T17:19:37.992Z,4.13
2018-09-04T17:22:06.244Z,3.80
2018-09-04T17:24:34.538Z,4.03
2018-09-04T17:27:02.811Z,4.37
2018-09-04T17:29:31.084Z,3.90
2018-09-04T17:31:59.409Z,4.00
2018-09-04T17:34:27.627Z,4.20
2018-09-04T17:36:55.875Z,4.70
2018-09-04T17:39:24.188Z,4.17
2018-09-04T17:41:52.437Z,4.03
2018-09-04T17:44:20.689Z,3.90
2018-09-04T17:46:48.952Z,3.73
2018-09-04T17:49:17.989Z,4.27
2018-09-04T17:51:46.237Z,4.20
2018-09-04T17:54:14.521Z,4.60
2018-09-04T17:56:42.790Z,3.93
2018-09-04T17:59:11.122Z,4.10
2018-09-04T18:01:39.379Z,4.10
2018-09-04T18:04:07.666Z,4.10
2018-09-04T18:06:35.972Z,4.00
2018-09-04T18:09:04.233Z,4.10
2018-09-04T18:11:32.490Z,4.03
2018-09-04T18:14:00.736Z,4.27
2018-09-04T18:16:29.023Z,4.30
2018-09-04T18:18:57.262Z,4.13
2018-09-04T18:21:25.518Z,3.97
2018-09-04T18:23:54.554Z,4.50
2018-09-04T18:26:22.848Z,4.30
2018-09-04T18:28:51.106Z,4.40
2018-09-04T18:31:19.391Z,4.30
2018-09-04T18:33:47.657Z,5.03
2018-09-04T18:36:16.087Z,4.40
2018-09-04T18:38:44.285Z,4.80
2018-09-04T18:41:12.552Z,4.23
2018-09-04T18:43:41.588Z,4.30
2018-09-04T18:46:09.834Z,4.10
2018-09-04T18:48:38.142Z,4.50
2018-09-04T18:51:06.382Z,4.40
2018-09-04T18:53:34.648Z,4.57
2018-09-04T18:56:02.920Z,4.60
2018-09-04T18:58:31.952Z,4.60
2018-09-04T19:01:00.217Z,4.57
2018-09-04T19:03:28.492Z,4.77
2018-09-04T19:05:56.760Z,4.97
2018-09-04T19:08:25.029Z,4.57
2018-09-04T19:10:53.285Z,4.50
2018-09-04T19:13:21.575Z,5.17
2018-09-04T19:15:49.853Z,5.53
2018-09-04T19:18:18.979Z,5.10
2018-09-04T19:20:47.265Z,5.47
2018-09-04T19:23:15.508Z,5.67
2018-09-04T19:25:43.835Z,5.13
2018-09-04T19:28:12.078Z,5.90
2018-09-04T19:30:40.376Z,5.83
2018-09-04T19:33:08.617Z,6.20
2018-09-04T19:35:36.893Z,6.03
2018-09-04T19:38:05.157Z,6.17
2018-09-04T19:40:33.444Z,5.53
2018-09-04T19:43:01.698Z,6.07
2018-09-04T19:45:29.990Z,6.17
2018-09-04T19:47:58.262Z,6.50
2018-09-04T19:50:26.541Z,6.47
2018-09-04T19:52:54.803Z,6.47
2018-09-04T19:55:23.131Z,5.77
2018-09-04T19:57:51.358Z,6.00
2018-09-04T20:00:19.612Z,6.00
2018-09-04T20:02:47.865Z,6.30
2018-09-04T20:05:16.126Z,5.63
2018-09-04T20:07:44.393Z,6.07
2018-09-04T20:10:12.830Z,5.97
2018-09-04T20:12:41.094Z,5.80
2018-09-04T20:15:09.385Z,5.20
2018-09-04T20:17:37.637Z,5.00
2018-09-04T20:20:06.690Z,5.43
2018-09-04T20:22:34.921Z,5.27
2018-09-04T20:25:03.176Z,6.10
2018-09-04T20:27:32.205Z,5.53
2018-09-04T20:30:00.474Z,5.37
2018-09-04T20:32:28.788Z,5.53
2018-09-04T20:34:57.009Z,5.43
2018-09-04T20:37:25.308Z,5.60
2018-09-04T20:39:53.582Z,5.53
2018-09-04T20:42:21.949Z,5.40
2018-09-04T20:44:50.217Z,5.53
2018-09-04T20:47:18.525Z,5.30
2018-09-04T20:49:46.765Z,5.33
2018-09-04T20:52:15.040Z,5.47
2018-09-04T20:54:43.410Z,5.00
2018-09-04T20:57:12.453Z,5.40
2018-09-04T20:59:52.453Z,5.27
2018-09-04T21:02:33.323Z,5.73
2018-09-04T21:05:13.262Z,5.90
2018-09-04T21:07:42.312Z,6.13
2018-09-04T21:10:10.541Z,5.60
2018-09-04T21:12:38.821Z,5.73
2018-09-04T21:15:07.074Z,5.73
2018-09-04T21:17:36.111Z,6.40
2018-09-04T21:20:04.378Z,5.43
2018-09-04T21:22:32.638Z,5.77
2018-09-04T21:25:00.894Z,5.63
2018-09-04T21:27:29.946Z,5.80
2018-09-04T21:29:58.191Z,5.40
2018-09-04T21:32:26.469Z,5.73
2018-09-04T21:34:54.705Z,5.40
2018-09-04T21:37:23.042Z,5.83
2018-09-04T21:39:51.323Z,5.67
2018-09-04T21:42:19.613Z,6.17
2018-09-04T21:44:47.855Z,6.10
2018-09-04T21:47:16.099Z,6.10
2018-09-04T21:49:44.357Z,5.73
2018-09-04T21:52:13.390Z,6.17
2018-09-04T21:54:41.634Z,6.03
2018-09-04T21:57:10.960Z,6.90
2018-09-04T21:59:39.207Z,5.87
2018-09-04T22:02:07.450Z,5.90
2018-09-04T22:04:36.014Z,6.13
2018-09-04T22:07:04.251Z,6.13
2018-09-04T22:09:32.499Z,6.10
2018-09-04T22:12:01.527Z,5.93
2018-09-04T22:14:29.764Z,6.43
2018-09-04T22:16:58.820Z,6.43
2018-09-04T22:19:27.073Z,6.20
2018-09-04T22:21:55.322Z,6.10
2018-09-04T22:24:24.361Z,6.53
2018-09-04T22:26:52.630Z,6.40
2018-09-04T22:29:20.879Z,6.70
2018-09-04T22:31:49.138Z,6.67
2018-09-04T22:34:18.167Z,7.37
2018-09-04T22:36:46.429Z,6.83
2018-09-04T22:39:14.797Z,6.53
2018-09-04T22:41:43.814Z,6.80
2018-09-04T22:44:12.062Z,7.33
2018-09-04T22:46:40.342Z,7.00
2018-09-04T22:49:08.554Z,6.90
2018-09-04T22:51:37.113Z,7.40
2018-09-04T22:54:05.358Z,7.10
2018-09-04T22:56:34.373Z,6.90
2018-09-04T22:59:02.645Z,6.97
2018-09-04T23:01:30.901Z,6.60
2018-09-04T23:04:00.011Z,7.07
2018-09-04T23:06:28.253Z,6.97
2018-09-04T23:08:57.274Z,7.00
2018-09-04T23:11:25.522Z,6.40
2018-09-04T23:13:54.543Z,6.60
2018-09-04T23:16:23.550Z,7.30
2018-09-04T23:18:51.809Z,6.80
2018-09-04T23:21:20.069Z,6.70
2018-09-04T23:23:49.070Z,6.83
2018-09-04T23:26:17.347Z,7.00
2018-09-04T23:28:46.419Z,6.17
2018-09-04T23:31:15.444Z,6.50
2018-09-04T23:33:43.706Z,6.77
2018-09-04T23:36:12.726Z,6.60
2018-09-04T23:38:40.982Z,6.47
2018-09-04T23:41:09.229Z,7.80
2018-09-04T23:43:38.265Z,7.93
2018-09-04T23:46:06.514Z,7.80
2018-09-04T23:48:34.790Z,7.43
2018-09-04T23:51:03.833Z,7.70
2018-09-04T23:53:32.065Z,7.43
2018-09-04T23:56:00.314Z,6.77
2018-09-04T23:58:29.345Z,6.93
